Time;durP1;ratioP1;P1;durP2;ratioP2;P2;SDS_P1;SDS_P2;PMS_P1;PMS_P2;Temp;Humidity;BMP_temperature;BMP_pressure;BME280_temperature;BME280_humidity;BME280_pressure;Samples;Min_cycle;Max_cycle;Signal;HPM_P1;HPM_P2
2022/11/12 00:00:44;;;;;;;;;;;31.40;90.70;;;;;;5063777;28;19927;-77
2022/11/12 00:03:11;;;;;;;;;;;31.40;90.70;;;;;;5056910;28;19919;-77
2022/11/12 00:05:37;;;;;;;;;;;31.40;90.60;;;;;;5061848;28;19919;-76
2022/11/12 00:08:04;;;;;;;;;;;31.50;90.30;;;;;;5065487;28;20458;-78
2022/11/12 00:10:31;;;;;;;;;;;31.50;89.60;;;;;;5066866;28;19912;-78
2022/11/12 00:12:58;;;;;;;;;;;31.50;89.50;;;;;;5065487;28;20283;-78
2022/11/12 00:15:25;;;;;;;;;;;31.40;89.60;;;;;;5066292;28;19912;-79
2022/11/12 00:17:54;;;;;;;;;;;31.40;90.00;;;;;;5062425;28;20278;-85
2022/11/12 00:20:21;;;;;;;;;;;31.50;89.20;;;;;;5064217;28;19964;-74
2022/11/12 00:22:48;;;;;;;;;;;31.60;90.10;;;;;;5059208;28;19920;-77
2022/11/12 00:25:14;;;;;;;;;;;31.90;89.10;;;;;;5060603;28;19913;-78
2022/11/12 00:27:41;;;;;;;;;;;31.90;88.40;;;;;;5068248;28;19913;-85
2022/11/12 00:30:08;;;;;;;;;;;31.90;87.80;;;;;;5065190;28;19913;-79
2022/11/12 00:32:38;;;;;;;;;;;31.60;87.60;;;;;;5068249;28;20552;-80
2022/11/12 00:35:05;;;;;;;;;;;31.70;88.80;;;;;;5066348;28;19921;-74
2022/11/12 00:37:32;;;;;;;;;;;31.90;87.60;;;;;;5064545;28;19916;-75
2022/11/12 00:39:58;;;;;;;;;;;32.10;87.80;;;;;;5067137;28;20351;-78
2022/11/12 00:42:25;;;;;;;;;;;32.30;86.30;;;;;;5068809;28;20350;-80
2022/11/12 00:44:52;;;;;;;;;;;32.10;87.00;;;;;;5071787;28;19923;-80
2022/11/12 00:47:22;;;;;;;;;;;32.10;86.80;;;;;;5073609;28;19916;-81
2022/11/12 00:49:52;;;;;;;;;;;32.10;86.70;;;;;;5071911;28;20329;-79
2022/11/12 00:52:19;;;;;;;;;;;32.30;85.80;;;;;;5072362;28;19974;-80
2022/11/12 00:54:45;;;;;;;;;;;32.40;85.50;;;;;;5073059;28;19912;-76
2022/11/12 00:57:12;;;;;;;;;;;32.70;85.50;;;;;;5071963;28;19913;-80
2022/11/12 00:59:39;;;;;;;;;;;32.90;87.20;;;;;;5072645;28;19924;-75
2022/11/12 01:02:09;;;;;;;;;;;33.00;86.50;;;;;;5073254;28;19950;-77
2022/11/12 01:04:36;;;;;;;;;;;32.70;85.90;;;;;;5071915;28;19923;-76
2022/11/12 01:07:06;;;;;;;;;;;32.60;86.30;;;;;;5068867;28;19920;-75
2022/11/12 01:09:32;;;;;;;;;;;32.60;86.70;;;;;;5068559;28;19924;-78
2022/11/12 01:11:59;;;;;;;;;;;32.80;86.10;;;;;;5071173;28;19916;-76
2022/11/12 01:14:28;;;;;;;;;;;32.80;86.60;;;;;;5071791;28;19913;-77
2022/11/12 01:16:55;;;;;;;;;;;32.50;86.00;;;;;;5064064;28;20290;-77
2022/11/12 01:19:22;;;;;;;;;;;32.60;86.70;;;;;;5071259;28;19928;-81
2022/11/12 01:21:51;;;;;;;;;;;32.70;86.20;;;;;;5068276;28;19921;-82
2022/11/12 01:24:18;;;;;;;;;;;32.70;86.00;;;;;;5070836;28;19920;-80
2022/11/12 01:26:48;;;;;;;;;;;32.60;85.10;;;;;;5070849;28;20186;-83
2022/11/12 01:29:14;;;;;;;;;;;32.50;85.50;;;;;;5065228;28;19917;-79
2022/11/12 01:31:41;;;;;;;;;;;32.60;86.10;;;;;;5065955;28;19912;-76
2022/11/12 01:34:08;;;;;;;;;;;32.70;85.60;;;;;;5062613;28;19913;-78
2022/11/12 01:36:36;;;;;;;;;;;32.70;86.10;;;;;;5062084;28;21162;-78
2022/11/12 01:39:04;;;;;;;;;;;32.70;86.10;;;;;;5064041;28;19917;-74
2022/11/12 01:41:34;;;;;;;;;;;32.60;86.20;;;;;;5063412;28;19923;-78
2022/11/12 01:44:11;;;;;;;;;;;32.70;85.50;;;;;;5072549;28;19916;-78
2022/11/12 01:46:50;;;;;;;;;;;32.60;85.70;;;;;;5072027;28;19920;-83
2022/11/12 01:49:21;;;;;;;;;;;32.30;85.50;;;;;;5068252;28;19981;-80
2022/11/12 01:51:50;;;;;;;;;;;32.20;86.70;;;;;;5066458;28;19924;-81
2022/11/12 01:54:17;;;;;;;;;;;32.40;85.60;;;;;;5059099;28;20371;-79
2022/11/12 01:56:44;;;;;;;;;;;32.60;85.80;;;;;;5068342;28;20192;-78
2022/11/12 01:59:13;;;;;;;;;;;32.60;85.60;;;;;;5069784;28;20059;-83
2022/11/12 02:01:41;;;;;;;;;;;32.70;84.90;;;;;;5064386;28;20409;-80
2022/11/12 02:04:07;;;;;;;;;;;32.60;85.70;;;;;;5064028;28;19913;-75
2022/11/12 02:06:35;;;;;;;;;;;32.70;84.90;;;;;;5065258;28;20317;-77
2022/11/12 02:09:01;;;;;;;;;;;32.60;84.40;;;;;;5063874;28;19982;-77
2022/11/12 02:11:28;;;;;;;;;;;32.60;85.30;;;;;;5064576;28;19912;-72
2022/11/12 02:13:59;;;;;;;;;;;32.60;84.60;;;;;;5062037;28;20398;-77
2022/11/12 02:16:30;;;;;;;;;;;32.60;84.10;;;;;;5038729;28;19971;-78
2022/11/12 02:18:57;;;;;;;;;;;32.70;85.40;;;;;;5054620;28;19920;-83
2022/11/12 02:21:27;;;;;;;;;;;32.80;84.50;;;;;;5058117;28;19923;-81
2022/11/12 02:24:01;;;;;;;;;;;32.70;84.70;;;;;;5061528;28;19924;-79
2022/11/12 02:26:29;;;;;;;;;;;32.70;84.00;;;;;;5055716;28;19917;-80
2022/11/12 02:28:59;;;;;;;;;;;32.60;84.10;;;;;;5056339;28;19977;-76
2022/11/12 02:31:26;;;;;;;;;;;32.80;85.70;;;;;;5057419;28;20192;-75
2022/11/12 02:33:52;;;;;;;;;;;32.90;83.50;;;;;;5058211;28;19923;-77
2022/11/12 02:36:19;;;;;;;;;;;32.80;85.00;;;;;;5054744;28;19964;-78
2022/11/12 02:38:46;;;;;;;;;;;32.80;84.70;;;;;;5055301;28;20123;-80
2022/11/12 02:41:12;;;;;;;;;;;32.90;84.80;;;;;;5061908;28;19916;-78
2022/11/12 02:43:39;;;;;;;;;;;32.70;85.80;;;;;;5070742;28;19998;-78
2022/11/12 02:46:10;;;;;;;;;;;32.50;85.90;;;;;;5069894;28;19917;-77
2022/11/12 02:48:36;;;;;;;;;;;32.20;85.20;;;;;;5060713;28;19920;-78
2022/11/12 02:51:03;;;;;;;;;;;32.00;86.20;;;;;;5070945;28;19913;-77
2022/11/12 02:53:31;;;;;;;;;;;32.00;87.30;;;;;;5069381;28;20337;-76
2022/11/12 02:55:58;;;;;;;;;;;32.30;86.50;;;;;;5058368;28;20443;-76
2022/11/12 02:58:25;;;;;;;;;;;32.50;86.10;;;;;;5068101;28;19924;-77
2022/11/12 03:00:51;;;;;;;;;;;32.60;85.00;;;;;;5072945;28;19917;-78
2022/11/12 03:03:18;;;;;;;;;;;32.60;85.50;;;;;;5074101;28;19916;-76
2022/11/12 03:05:45;;;;;;;;;;;32.60;85.50;;;;;;5063674;28;19917;-74
2022/11/12 03:08:12;;;;;;;;;;;32.60;86.40;;;;;;5070855;28;19924;-78
2022/11/12 03:10:39;;;;;;;;;;;32.60;85.80;;;;;;5071008;28;19922;-77
2022/11/12 03:13:06;;;;;;;;;;;32.60;85.70;;;;;;5070675;28;19916;-78
2022/11/12 03:15:35;;;;;;;;;;;32.70;85.50;;;;;;5067811;28;20275;-77
2022/11/12 03:18:04;;;;;;;;;;;32.60;85.40;;;;;;5065584;28;19919;-80
2022/11/12 03:20:33;;;;;;;;;;;32.20;86.60;;;;;;5069157;28;20385;-78
2022/11/12 03:23:01;;;;;;;;;;;32.00;87.20;;;;;;5064218;28;20054;-74
2022/11/12 03:25:28;;;;;;;;;;;31.80;87.50;;;;;;5070558;28;19928;-78
2022/11/12 03:27:59;;;;;;;;;;;31.70;88.10;;;;;;5071218;28;19912;-77
2022/11/12 03:30:29;;;;;;;;;;;31.50;88.10;;;;;;5069754;28;19912;-76
2022/11/12 03:32:56;;;;;;;;;;;31.30;88.00;;;;;;5070431;28;19912;-77
2022/11/12 03:35:25;;;;;;;;;;;31.00;88.90;;;;;;5063370;28;20274;-78
2022/11/12 03:37:52;;;;;;;;;;;30.70;88.70;;;;;;5067497;28;19916;-79
2022/11/12 03:40:19;;;;;;;;;;;30.60;89.70;;;;;;5069697;28;20412;-79
2022/11/12 03:42:55;;;;;;;;;;;30.50;89.40;;;;;;5071951;28;19956;-78
2022/11/12 03:45:27;;;;;;;;;;;30.60;89.90;;;;;;5077772;28;20263;-78
2022/11/12 03:47:55;;;;;;;;;;;30.70;90.30;;;;;;5088339;28;19919;-78
2022/11/12 03:50:23;;;;;;;;;;;30.90;90.10;;;;;;5080804;28;19913;-77
2022/11/12 03:52:50;;;;;;;;;;;31.00;89.90;;;;;;5075884;28;19923;-77
2022/11/12 03:55:18;;;;;;;;;;;30.90;90.00;;;;;;5076303;28;19912;-77
2022/11/12 03:57:46;;;;;;;;;;;30.60;90.10;;;;;;5074822;28;19913;-76
2022/11/12 04:00:13;;;;;;;;;;;30.40;90.60;;;;;;5072642;28;19925;-77
2022/11/12 04:02:43;;;;;;;;;;;30.20;90.80;;;;;;5067756;28;19924;-76
2022/11/12 04:10:43;;;;;;;;;;;29.90;91.10;;;;;;5075629;28;20346;-76
2022/11/12 04:13:31;;;;;;;;;;;29.90;90.90;;;;;;5075954;28;20007;-79
2022/11/12 04:27:06;;;;;;;;;;;29.80;91.40;;;;;;5070899;28;20361;-76
2022/11/12 04:32:17;;;;;;;;;;;29.70;91.50;;;;;;5073537;28;19966;-78
2022/11/12 04:34:44;;;;;;;;;;;29.70;91.50;;;;;;5077126;28;19973;-77
2022/11/12 04:37:11;;;;;;;;;;;29.60;91.50;;;;;;5076774;28;19998;-78
2022/11/12 04:39:37;;;;;;;;;;;29.50;91.60;;;;;;5076752;28;19924;-78
2022/11/12 04:45:04;;;;;;;;;;;29.30;91.70;;;;;;5077292;28;19923;-77
2022/11/12 04:47:34;;;;;;;;;;;29.30;91.60;;;;;;5065862;28;19916;-76
2022/11/12 04:50:02;;;;;;;;;;;29.20;92.20;;;;;;5077145;28;19923;-77
2022/11/12 04:52:29;;;;;;;;;;;29.00;92.10;;;;;;5073088;28;19913;-75
2022/11/12 04:54:56;;;;;;;;;;;28.90;92.30;;;;;;5072130;28;19920;-74
2022/11/12 04:57:26;;;;;;;;;;;28.80;92.60;;;;;;5073304;28;19912;-76
2022/11/12 04:59:53;;;;;;;;;;;28.70;92.90;;;;;;5073506;28;20011;-79
2022/11/12 05:02:20;;;;;;;;;;;28.80;92.60;;;;;;5067651;28;19920;-78
2022/11/12 05:04:47;;;;;;;;;;;29.00;92.70;;;;;;5067407;28;19920;-77
2022/11/12 05:07:13;;;;;;;;;;;29.10;92.50;;;;;;5060288;28;19968;-77
2022/11/12 05:09:40;;;;;;;;;;;29.00;92.30;;;;;;5073260;28;20414;-77
2022/11/12 05:12:07;;;;;;;;;;;28.90;92.60;;;;;;5069401;28;19999;-74
2022/11/12 05:14:34;;;;;;;;;;;28.50;92.70;;;;;;5067631;28;20379;-76
2022/11/12 05:17:01;;;;;;;;;;;28.20;93.10;;;;;;5072529;28;20025;-77
2022/11/12 05:19:28;;;;;;;;;;;28.00;93.10;;;;;;5072961;28;20014;-74
2022/11/12 05:22:06;;;;;;;;;;;27.90;93.50;;;;;;5071664;28;20350;-76
2022/11/12 05:24:39;;;;;;;;;;;27.70;93.70;;;;;;5072641;28;19920;-78
2022/11/12 05:27:08;;;;;;;;;;;27.60;94.00;;;;;;5073398;28;20333;-78
2022/11/12 05:29:37;;;;;;;;;;;27.40;94.00;;;;;;5073345;28;20398;-77
2022/11/12 05:32:05;;;;;;;;;;;27.30;94.10;;;;;;5072176;28;20007;-76
2022/11/12 05:34:32;;;;;;;;;;;27.20;94.20;;;;;;5072047;28;19912;-77
2022/11/12 05:37:02;;;;;;;;;;;27.00;94.30;;;;;;5072408;28;20424;-77
2022/11/12 05:39:32;;;;;;;;;;;26.90;94.60;;;;;;5072686;28;19931;-76
2022/11/12 05:41:58;;;;;;;;;;;26.90;94.70;;;;;;5070783;28;19924;-77
2022/11/12 05:44:25;;;;;;;;;;;26.80;94.70;;;;;;5070155;28;19918;-78
2022/11/12 05:46:52;;;;;;;;;;;26.60;94.70;;;;;;5074487;28;20370;-78
2022/11/12 05:49:18;;;;;;;;;;;26.50;95.10;;;;;;5085786;28;19912;-77
2022/11/12 05:51:45;;;;;;;;;;;26.30;95.30;;;;;;5071075;28;19924;-77
2022/11/12 05:54:12;;;;;;;;;;;26.10;95.50;;;;;;5059286;28;19966;-76
2022/11/12 05:56:39;;;;;;;;;;;26.10;95.60;;;;;;5049794;28;20354;-77
2022/11/12 05:59:07;;;;;;;;;;;25.90;95.80;;;;;;5072542;28;20007;-76
2022/11/12 06:01:37;;;;;;;;;;;25.90;96.00;;;;;;5061257;28;19908;-78
2022/11/12 06:04:04;;;;;;;;;;;25.80;96.10;;;;;;5058233;28;19920;-77
2022/11/12 06:06:30;;;;;;;;;;;25.80;96.30;;;;;;5072417;28;19919;-77
2022/11/12 06:08:57;;;;;;;;;;;25.70;96.50;;;;;;5071245;28;19970;-77
2022/11/12 06:11:23;;;;;;;;;;;25.70;96.70;;;;;;5072866;28;19909;-74
2022/11/12 06:13:50;;;;;;;;;;;25.60;97.30;;;;;;5068372;28;19970;-76
2022/11/12 06:16:17;;;;;;;;;;;25.50;97.90;;;;;;5070425;28;19921;-78
2022/11/12 06:18:43;;;;;;;;;;;25.40;98.10;;;;;;5071145;28;19917;-78
2022/11/12 06:21:20;;;;;;;;;;;25.20;98.30;;;;;;5072634;28;19916;-78
2022/11/12 06:23:49;;;;;;;;;;;25.10;98.30;;;;;;5070021;28;20047;-78
2022/11/12 06:26:15;;;;;;;;;;;25.00;98.60;;;;;;5072584;28;19966;-76
2022/11/12 06:28:42;;;;;;;;;;;24.90;98.60;;;;;;5069926;28;19952;-78
2022/11/12 06:31:09;;;;;;;;;;;24.80;98.80;;;;;;5072777;28;19991;-78
2022/11/12 06:33:35;;;;;;;;;;;24.70;98.80;;;;;;5068360;28;20325;-78
2022/11/12 06:36:03;;;;;;;;;;;24.70;98.90;;;;;;5072667;28;19908;-77
2022/11/12 06:38:30;;;;;;;;;;;24.60;99.00;;;;;;5071132;28;19919;-76
2022/11/12 06:40:57;;;;;;;;;;;24.60;99.10;;;;;;5071042;28;19924;-77
2022/11/12 06:43:24;;;;;;;;;;;24.60;99.10;;;;;;5065966;28;19935;-77
2022/11/12 06:45:51;;;;;;;;;;;24.60;99.20;;;;;;5057843;28;20375;-77
2022/11/12 06:48:17;;;;;;;;;;;24.50;99.30;;;;;;5084596;28;20040;-77
2022/11/12 06:50:44;;;;;;;;;;;24.50;99.30;;;;;;5072864;28;19912;-78
2022/11/12 06:53:11;;;;;;;;;;;24.50;99.30;;;;;;5070358;28;19912;-77
2022/11/12 06:55:37;;;;;;;;;;;24.50;99.50;;;;;;5071094;28;19919;-77
2022/11/12 06:58:04;;;;;;;;;;;24.30;99.50;;;;;;5071215;28;19935;-77
2022/11/12 07:00:31;;;;;;;;;;;24.30;99.80;;;;;;5069876;28;19920;-77
2022/11/12 07:02:57;;;;;;;;;;;24.30;99.80;;;;;;5060054;28;20335;-77
2022/11/12 07:05:24;;;;;;;;;;;24.30;99.60;;;;;;5070694;28;19991;-73
2022/11/12 07:07:51;;;;;;;;;;;24.30;99.40;;;;;;5063486;28;20348;-77
2022/11/12 07:10:17;;;;;;;;;;;24.30;99.60;;;;;;5071351;28;20266;-77
2022/11/12 07:12:44;;;;;;;;;;;24.30;99.60;;;;;;5067392;28;19923;-78
2022/11/12 07:15:11;;;;;;;;;;;24.30;99.80;;;;;;5069950;28;19919;-77
2022/11/12 07:17:37;;;;;;;;;;;24.30;99.80;;;;;;5070172;28;19917;-79
2022/11/12 07:20:04;;;;;;;;;;;24.30;99.80;;;;;;5069568;28;19924;-75
2022/11/12 07:22:32;;;;;;;;;;;24.30;99.60;;;;;;5070659;28;19951;-78
2022/11/12 07:24:59;;;;;;;;;;;24.30;99.70;;;;;;5070651;28;20397;-78
2022/11/12 07:27:28;;;;;;;;;;;24.30;99.90;;;;;;5070518;28;20263;-77
2022/11/12 07:29:55;;;;;;;;;;;24.20;99.90;;;;;;5070710;28;19917;-77
2022/11/12 07:32:21;;;;;;;;;;;24.10;99.90;;;;;;5071001;28;19913;-79
2022/11/12 07:34:49;;;;;;;;;;;24.00;99.90;;;;;;5065586;28;19924;-80
2022/11/12 07:37:15;;;;;;;;;;;23.90;99.90;;;;;;5065385;28;19920;-77
2022/11/12 07:39:42;;;;;;;;;;;23.90;99.90;;;;;;5070413;28;20006;-76
2022/11/12 07:42:09;;;;;;;;;;;23.80;99.90;;;;;;5057812;28;19912;-77
2022/11/12 07:44:35;;;;;;;;;;;23.70;99.90;;;;;;5070757;28;20011;-78
2022/11/12 07:47:02;;;;;;;;;;;23.60;99.90;;;;;;5066942;28;19924;-76
2022/11/12 07:49:29;;;;;;;;;;;23.50;99.90;;;;;;5066285;28;20641;-77
2022/11/12 07:51:55;;;;;;;;;;;23.40;99.90;;;;;;5065970;28;19919;-77
2022/11/12 07:54:22;;;;;;;;;;;23.30;99.90;;;;;;5055433;28;19916;-78
2022/11/12 07:56:49;;;;;;;;;;;23.30;99.90;;;;;;5069655;28;19928;-76
2022/11/12 07:59:15;;;;;;;;;;;23.20;99.90;;;;;;5065835;28;19920;-78
2022/11/12 08:01:43;;;;;;;;;;;23.10;99.90;;;;;;5069542;28;20355;-77
2022/11/12 08:04:11;;;;;;;;;;;23.10;99.90;;;;;;5070818;28;19919;-77
2022/11/12 08:06:37;;;;;;;;;;;23.00;99.90;;;;;;5070000;28;19923;-77
2022/11/12 08:09:05;;;;;;;;;;;23.00;99.90;;;;;;5070607;28;19920;-78
2022/11/12 08:11:32;;;;;;;;;;;23.00;99.90;;;;;;5070604;28;19970;-76
2022/11/12 08:13:59;;;;;;;;;;;23.00;99.90;;;;;;5069643;28;19944;-77
2022/11/12 08:16:26;;;;;;;;;;;22.90;99.90;;;;;;5063452;28;19920;-77
2022/11/12 08:18:53;;;;;;;;;;;22.90;99.90;;;;;;5070114;28;19921;-77
2022/11/12 08:21:19;;;;;;;;;;;22.80;99.90;;;;;;5070011;28;19934;-77
2022/11/12 08:23:47;;;;;;;;;;;22.80;99.90;;;;;;5070241;28;19979;-78
2022/11/12 08:26:14;;;;;;;;;;;22.70;99.90;;;;;;5065041;28;19920;-77
2022/11/12 08:28:41;;;;;;;;;;;22.70;99.90;;;;;;5064244;28;19920;-77
2022/11/12 08:31:12;;;;;;;;;;;22.70;99.90;;;;;;5069320;28;20019;-77
2022/11/12 08:33:39;;;;;;;;;;;22.60;99.90;;;;;;5069791;28;19920;-75
2022/11/12 08:36:06;;;;;;;;;;;22.60;99.90;;;;;;5067622;28;19935;-77
2022/11/12 08:38:33;;;;;;;;;;;22.50;99.90;;;;;;5065994;28;19916;-75
2022/11/12 08:41:21;;;;;;;;;;;22.50;99.90;;;;;;5063052;28;20243;-72
2022/11/12 08:46:58;;;;;;;;;;;22.50;99.90;;;;;;5064896;28;20009;-77
2022/11/12 08:49:24;;;;;;;;;;;22.40;99.90;;;;;;5063186;28;20424;-75
2022/11/12 08:51:51;;;;;;;;;;;22.40;99.90;;;;;;5071941;28;20022;-76
2022/11/12 08:54:18;;;;;;;;;;;22.40;99.90;;;;;;5072631;28;19948;-76
2022/11/12 08:56:44;;;;;;;;;;;22.30;99.90;;;;;;5073039;28;19913;-72
2022/11/12 08:59:11;;;;;;;;;;;22.40;99.90;;;;;;5066048;28;19916;-74
2022/11/12 09:01:38;;;;;;;;;;;22.40;99.90;;;;;;5065351;28;19913;-73
2022/11/12 09:04:04;;;;;;;;;;;22.40;99.90;;;;;;5070566;28;19916;-73
2022/11/12 09:06:31;;;;;;;;;;;22.30;99.90;;;;;;5071312;28;20007;-75
2022/11/12 09:08:58;;;;;;;;;;;22.40;99.90;;;;;;5071332;28;19920;-75
2022/11/12 09:11:24;;;;;;;;;;;22.40;99.90;;;;;;5071364;28;19917;-74
2022/11/12 09:13:54;;;;;;;;;;;22.40;99.90;;;;;;5068108;28;19942;-75
2022/11/12 09:16:22;;;;;;;;;;;22.40;99.90;;;;;;5069964;28;19920;-76
2022/11/12 09:18:49;;;;;;;;;;;22.30;99.90;;;;;;5066522;28;19963;-76
2022/11/12 09:21:16;;;;;;;;;;;22.20;99.90;;;;;;5065622;28;19916;-73
2022/11/12 09:23:43;;;;;;;;;;;22.20;99.90;;;;;;5072643;28;19913;-77
2022/11/12 09:26:10;;;;;;;;;;;22.10;99.90;;;;;;5071494;28;20362;-76
2022/11/12 09:28:36;;;;;;;;;;;22.10;99.90;;;;;;5070458;28;19925;-76
2022/11/12 09:31:05;;;;;;;;;;;22.00;99.90;;;;;;5069609;28;20007;-73
2022/11/12 09:33:33;;;;;;;;;;;21.90;99.90;;;;;;5071962;28;19921;-74
2022/11/12 09:36:00;;;;;;;;;;;21.90;99.90;;;;;;5071561;28;19916;-75
2022/11/12 09:38:27;;;;;;;;;;;21.90;99.90;;;;;;5058963;28;19970;-73
2022/11/12 09:40:54;;;;;;;;;;;21.70;99.90;;;;;;5064192;28;19921;-76
2022/11/12 09:43:22;;;;;;;;;;;21.70;99.90;;;;;;5072023;28;19912;-77
2022/11/12 09:45:50;;;;;;;;;;;21.60;99.90;;;;;;5071989;28;19919;-75
2022/11/12 09:48:19;;;;;;;;;;;21.50;99.90;;;;;;5064149;28;19944;-75
2022/11/12 09:51:06;;;;;;;;;;;21.50;99.90;;;;;;5069969;28;19912;-77
2022/11/12 09:53:53;;;;;;;;;;;21.40;99.90;;;;;;5062211;28;19916;-77
2022/11/12 09:56:20;;;;;;;;;;;21.50;99.90;;;;;;5070537;28;19916;-76
2022/11/12 09:58:48;;;;;;;;;;;21.40;99.90;;;;;;5071312;28;19912;-78
2022/11/12 10:01:17;;;;;;;;;;;21.40;99.90;;;;;;5069940;28;19959;-74
2022/11/12 10:03:52;;;;;;;;;;;21.40;99.90;;;;;;5071769;28;19923;-77
2022/11/12 10:06:23;;;;;;;;;;;21.40;99.90;;;;;;5071525;28;19969;-75
2022/11/12 10:08:57;;;;;;;;;;;21.40;99.90;;;;;;5065630;28;19928;-74
2022/11/12 10:11:24;;;;;;;;;;;21.30;99.90;;;;;;5068642;28;19963;-73
2022/11/12 10:13:50;;;;;;;;;;;21.30;99.90;;;;;;5063820;28;19923;-75
2022/11/12 10:16:44;;;;;;;;;;;21.20;99.90;;;;;;5069380;28;20274;-76
2022/11/12 10:19:14;;;;;;;;;;;21.10;99.90;;;;;;5053725;28;19927;-75
2022/11/12 10:21:53;;;;;;;;;;;21.20;99.90;;;;;;5070942;28;19916;-77
2022/11/12 10:24:21;;;;;;;;;;;21.20;99.90;;;;;;5069349;28;19924;-74
2022/11/12 10:26:48;;;;;;;;;;;21.10;99.90;;;;;;5067350;28;19917;-74
2022/11/12 10:29:39;;;;;;;;;;;21.10;99.90;;;;;;5060696;28;19963;-75
2022/11/12 10:32:09;;;;;;;;;;;21.10;99.90;;;;;;5067941;28;19923;-74
2022/11/12 10:34:35;;;;;;;;;;;21.10;99.90;;;;;;5070313;28;19917;-74
2022/11/12 10:37:22;;;;;;;;;;;21.10;99.90;;;;;;5071899;28;19915;-78
2022/11/12 10:39:48;;;;;;;;;;;21.10;99.90;;;;;;5056623;28;19921;-76
2022/11/12 10:42:16;;;;;;;;;;;21.00;99.90;;;;;;5070134;28;19912;-75
2022/11/12 10:44:44;;;;;;;;;;;20.90;99.90;;;;;;5066425;28;20045;-77
2022/11/12 10:47:30;;;;;;;;;;;20.90;99.90;;;;;;5071549;28;19954;-76
2022/11/12 10:50:09;;;;;;;;;;;20.80;99.90;;;;;;5062137;28;19916;-76
2022/11/12 10:52:36;;;;;;;;;;;20.80;99.90;;;;;;5066587;28;19952;-76
2022/11/12 10:55:14;;;;;;;;;;;20.70;99.90;;;;;;5069810;28;20292;-76
2022/11/12 10:57:41;;;;;;;;;;;20.60;99.90;;;;;;5067988;28;20371;-76
2022/11/12 11:00:10;;;;;;;;;;;20.60;99.90;;;;;;5068520;28;19921;-74
2022/11/12 11:02:37;;;;;;;;;;;20.50;99.90;;;;;;5061184;28;20051;-76
2022/11/12 11:05:39;;;;;;;;;;;20.50;99.90;;;;;;5068955;28;19918;-76
2022/11/12 11:08:09;;;;;;;;;;;20.40;99.90;;;;;;4989099;28;20027;-76
2022/11/12 11:10:36;;;;;;;;;;;20.40;99.90;;;;;;5053466;28;19912;-77
2022/11/12 11:13:25;;;;;;;;;;;20.30;99.90;;;;;;5071047;28;19916;-77
2022/11/12 11:16:02;;;;;;;;;;;20.30;99.90;;;;;;5069470;28;19923;-78
2022/11/12 11:18:30;;;;;;;;;;;20.20;99.90;;;;;;5060470;28;19943;-76
2022/11/12 11:21:09;;;;;;;;;;;20.20;99.90;;;;;;5069487;28;19924;-75
2022/11/12 11:24:01;;;;;;;;;;;20.20;99.90;;;;;;5070645;28;19912;-75
2022/11/12 11:26:46;;;;;;;;;;;20.10;99.90;;;;;;5068141;28;19917;-76
2022/11/12 11:29:19;;;;;;;;;;;20.10;99.90;;;;;;5069050;28;20339;-77
2022/11/12 11:31:53;;;;;;;;;;;20.00;99.90;;;;;;5068086;28;20367;-77
2022/11/12 11:34:30;;;;;;;;;;;20.00;99.90;;;;;;5064382;28;19919;-71
2022/11/12 11:37:05;;;;;;;;;;;19.90;99.90;;;;;;5057964;28;19924;-77
2022/11/12 11:39:32;;;;;;;;;;;19.90;99.90;;;;;;5063398;28;19920;-76
2022/11/12 11:42:06;;;;;;;;;;;19.90;99.90;;;;;;5070011;28;20534;-76
2022/11/12 11:44:33;;;;;;;;;;;19.80;99.90;;;;;;5066427;28;20270;-76
2022/11/12 11:47:02;;;;;;;;;;;19.80;99.90;;;;;;5069106;28;19919;-77
2022/11/12 11:49:44;;;;;;;;;;;19.80;99.90;;;;;;5070649;28;19955;-78
2022/11/12 11:52:11;;;;;;;;;;;19.80;99.90;;;;;;5066360;28;20488;-78
2022/11/12 11:54:44;;;;;;;;;;;19.70;99.90;;;;;;5057357;28;19919;-78
2022/11/12 11:57:14;;;;;;;;;;;19.70;99.90;;;;;;5070866;28;19919;-77
2022/11/12 12:00:00;;;;;;;;;;;19.70;99.90;;;;;;5067066;28;20376;-74
2022/11/12 12:02:42;;;;;;;;;;;19.60;99.90;;;;;;5066728;28;19920;-81
2022/11/12 12:05:12;;;;;;;;;;;19.70;99.90;;;;;;5077491;28;19958;-78
2022/11/12 12:07:54;;;;;;;;;;;19.60;99.90;;;;;;5066938;28;20488;-78
2022/11/12 12:10:23;;;;;;;;;;;19.70;99.90;;;;;;5068794;28;20267;-79
2022/11/12 12:13:08;;;;;;;;;;;19.70;99.90;;;;;;5049909;28;19920;-78
2022/11/12 12:15:41;;;;;;;;;;;19.60;99.90;;;;;;5068809;28;20007;-75
2022/11/12 12:18:08;;;;;;;;;;;19.60;99.90;;;;;;5074121;28;20003;-78
2022/11/12 12:20:37;;;;;;;;;;;19.60;99.90;;;;;;5073511;28;19920;-77
2022/11/12 12:23:25;;;;;;;;;;;19.60;99.90;;;;;;5072872;28;20016;-77
2022/11/12 12:25:54;;;;;;;;;;;19.60;99.90;;;;;;5073374;28;19916;-79
2022/11/12 12:28:32;;;;;;;;;;;19.60;99.90;;;;;;5074257;28;19940;-78
2022/11/12 12:31:03;;;;;;;;;;;19.60;99.90;;;;;;5071932;28;20000;-78
2022/11/12 12:33:30;;;;;;;;;;;19.60;99.90;;;;;;5071090;28;20341;-79
2022/11/12 12:36:06;;;;;;;;;;;19.50;99.90;;;;;;5073442;28;19916;-78
2022/11/12 12:38:45;;;;;;;;;;;19.50;99.90;;;;;;5068529;28;19920;-78
2022/11/12 12:41:11;;;;;;;;;;;19.50;99.90;;;;;;5067021;28;19928;-82
2022/11/12 12:43:44;;;;;;;;;;;19.50;99.90;;;;;;5068640;28;19916;-81
2022/11/12 12:46:12;;;;;;;;;;;19.50;99.90;;;;;;5073309;28;20398;-79
2022/11/12 12:48:41;;;;;;;;;;;19.50;99.90;;;;;;5072660;28;20354;-79
2022/11/12 12:51:08;;;;;;;;;;;19.50;99.90;;;;;;5071677;28;19916;-79
2022/11/12 12:53:35;;;;;;;;;;;19.50;99.90;;;;;;5066653;28;19917;-78
2022/11/12 12:56:03;;;;;;;;;;;19.50;99.90;;;;;;5073253;28;19946;-80
2022/11/12 12:58:39;;;;;;;;;;;19.50;99.90;;;;;;5071345;28;20488;-80
2022/11/12 13:01:12;;;;;;;;;;;19.40;99.90;;;;;;5069295;28;19924;-79
2022/11/12 13:03:49;;;;;;;;;;;19.40;99.90;;;;;;5066551;28;19928;-77
2022/11/12 13:06:22;;;;;;;;;;;19.40;99.90;;;;;;5071054;28;19956;-79
2022/11/12 13:08:51;;;;;;;;;;;19.40;99.90;;;;;;5073303;28;19935;-78
2022/11/12 13:14:34;;;;;;;;;;;19.40;99.90;;;;;;4978179;28;20769;-80
2022/11/12 13:17:10;;;;;;;;;;;19.30;99.90;;;;;;5059933;28;20351;-77
2022/11/12 13:19:37;;;;;;;;;;;19.30;99.90;;;;;;5065359;28;19924;-79
2022/11/12 13:22:18;;;;;;;;;;;19.30;99.90;;;;;;5072604;28;19912;-80
2022/11/12 13:25:04;;;;;;;;;;;19.30;99.90;;;;;;5071782;28;19998;-79
2022/11/12 13:27:39;;;;;;;;;;;19.30;99.90;;;;;;5073508;28;19927;-80
2022/11/12 13:30:07;;;;;;;;;;;19.30;99.90;;;;;;5071648;28;19919;-79
2022/11/12 13:32:46;;;;;;;;;;;19.30;99.90;;;;;;5071128;28;19919;-77
2022/11/12 13:35:22;;;;;;;;;;;19.20;99.90;;;;;;5070634;28;20003;-77
2022/11/12 13:38:00;;;;;;;;;;;19.20;99.90;;;;;;5073213;28;19938;-78
2022/11/12 13:40:35;;;;;;;;;;;19.20;99.90;;;;;;5067950;28;19928;-77
2022/11/12 13:43:20;;;;;;;;;;;19.10;99.90;;;;;;5065351;28;19912;-77
2022/11/12 13:45:55;;;;;;;;;;;19.10;99.90;;;;;;5074345;28;19923;-78
2022/11/12 13:48:54;;;;;;;;;;;19.10;99.90;;;;;;5072926;28;20354;-77
2022/11/12 13:51:43;;;;;;;;;;;19.00;99.90;;;;;;5020865;28;19996;-75
2022/11/12 13:54:30;;;;;;;;;;;19.00;99.90;;;;;;5064347;28;19917;-78
2022/11/12 13:57:11;;;;;;;;;;;18.90;99.90;;;;;;5065810;28;19928;-77
2022/11/12 13:59:38;;;;;;;;;;;18.90;99.90;;;;;;5070493;28;19928;-78
2022/11/12 14:02:14;;;;;;;;;;;18.90;99.90;;;;;;5071107;28;19995;-76
2022/11/12 14:04:41;;;;;;;;;;;18.80;99.90;;;;;;5070956;28;20510;-76
2022/11/12 14:07:16;;;;;;;;;;;18.80;99.90;;;;;;5071705;28;19978;-74
2022/11/12 14:10:09;;;;;;;;;;;18.80;99.90;;;;;;5061884;28;19968;-77
2022/11/12 14:13:04;;;;;;;;;;;18.80;99.90;;;;;;5070709;28;19916;-77
2022/11/12 14:15:37;;;;;;;;;;;18.80;99.90;;;;;;5062037;28;19961;-76
2022/11/12 14:18:10;;;;;;;;;;;18.80;99.90;;;;;;5072340;28;20278;-77
2022/11/12 14:20:39;;;;;;;;;;;18.70;99.90;;;;;;5069940;28;19985;-77
2022/11/12 14:23:11;;;;;;;;;;;18.70;99.90;;;;;;5069064;28;20389;-76
2022/11/12 14:25:48;;;;;;;;;;;18.70;99.90;;;;;;5066818;28;20382;-77
2022/11/12 14:28:24;;;;;;;;;;;18.70;99.90;;;;;;5069565;28;19913;-77
2022/11/12 14:30:50;;;;;;;;;;;18.70;99.90;;;;;;5069708;28;19995;-77
2022/11/12 14:33:18;;;;;;;;;;;18.70;99.90;;;;;;5067908;28;19928;-77
2022/11/12 14:35:45;;;;;;;;;;;18.60;99.90;;;;;;5070523;28;20274;-77
2022/11/12 14:38:12;;;;;;;;;;;18.60;99.90;;;;;;5070866;28;19920;-77
2022/11/12 14:40:43;;;;;;;;;;;18.60;99.90;;;;;;5067882;28;19925;-71
2022/11/12 14:43:28;;;;;;;;;;;18.60;99.90;;;;;;5069787;28;19923;-78
2022/11/12 14:45:56;;;;;;;;;;;18.60;99.90;;;;;;5069480;28;19967;-78
2022/11/12 14:48:22;;;;;;;;;;;18.50;99.90;;;;;;5071609;28;19908;-79
2022/11/12 14:50:53;;;;;;;;;;;18.50;99.90;;;;;;5069190;28;19920;-77
2022/11/12 14:53:22;;;;;;;;;;;18.50;99.90;;;;;;5070392;28;19923;-74
2022/11/12 14:55:51;;;;;;;;;;;18.50;99.90;;;;;;5070819;28;20005;-78
2022/11/12 14:58:19;;;;;;;;;;;18.40;99.90;;;;;;5070341;28;19913;-78
2022/11/12 15:00:47;;;;;;;;;;;18.40;99.90;;;;;;5069346;28;20688;-77